Thursday, October 23, 2014
00:01 UTC
  |  Log In   |  Register Free
Airport Search:

Visalia Municipal Airport
(KVIS)

Visalia Municipal Airport Diagram
No Airport Diagram Available

FAA data valid effective September 18, 2014 - November 13, 2014 (unless otherwise noted).

 
 
 
 
 
 
 
 
 
 
 
 
 
 

Current Aviation Weather for Visalia Municipal Airport (KVIS)

The most recent METAR observation for KVIS was updated at: 2317
METAR Summary (Translated METAR)
KVIS
222255Z 00000KT 10SM CLR 24/09 A3001 RMK AO1
KHJO
222253Z AUTO 31007KT 10SM CLR 24/05 A3000 RMK AO2 SLP160 T02440050
(11.4 nm SW from KVIS)
KPTV
222255Z 28004KT 10SM CLR 23/07 A3001 RMK AO1
(23.6 nm SE from KVIS)
TAF Summary (Translated TAF)
KVIS
221720Z 2218/2318 VRB03KT P6SM SCT250
  Airport Weather Conditions for KVIS

 Current Weather at VIS
73° F
Fair
North winds at 0.0 mph
VIS NOAA Radar

Pressure: 30.02 in
Humidity: 41%
Wind: Calm
Dew Point: 48.2°F
Visibility: 10.00 mi


Airport Weather Forecast for KVIS

Translated METAR and TAF for KVIS
Translated METAR for KVIS (2356 UTC 22 October 2014)
found at http://aviationweather.gov/adds/metars/
 
METAR text: KVIS 222335Z 28006KT 10SM CLR 23/09 A3001 RMK AO1
Conditions at: KVIS (VISALIA MUNI , CA, US) observed 2335 UTC 22 October 2014
Temperature: 23.0°C (73°F)
Dewpoint: 9.0°C (48°F) [RH = 41%]
Pressure (altimeter): 30.01 inches Hg (1016.3 mb)
Winds: from the W (280 degrees) at 7 MPH (6 knots; 3.1 m/s)
Visibility: 10 or more miles (16+ km)
Ceiling: at least 12,000 feet AGL
Clouds: sky clear below 12,000 feet AGL
Weather: no significant weather observed at this time
Translated TAF for KVIS
Forecast for: KVIS (VISALIA MUNI , CA, US)
TAF Text: KVIS 222320Z 2300/2324 VRB03KT P6SM SKC
Forecast period: 0000 UTC 23 October 2014 to 0000 UTC 24 October 2014
Forecast type: FROM: standard forecast or significant change
Winds: variable direction winds at 3 MPH (3 knots; 1.6 m/s)
Visibility: 6 or more miles (10+ km)
Clouds: clear skies
Weather: no significant weather forecast for this period

Find All Airport Services Find A Hotel Find A Rental Car Find A Golf Course Find A Restaurant $100 Hamburger



FBO's on the Field
FBO Company Facility Photos Services Transportation Aviation Fuel Prices: Prices include tax
Catering Weather Repair Courtesy Rental Type 100LL JetA JetA+ MOGAS 8087
 
Add another FBO Facility Photos Catering Weather Repair Courtesy Rental Type 100LL JetA JetA+ MOGAS 8087
Services Transportation Aviation Fuel Prices: Prices include tax
There are no FBO's currently reporting fuel at VIS. List your FBO now


model-print
model-print
model-print
model-print